Time;durP1;ratioP1;P1;durP2;ratioP2;P2;SDS_P1;SDS_P2;PMS_P1;PMS_P2;Temp;Humidity;BMP_temperature;BMP_pressure;BME280_temperature;BME280_humidity;BME280_pressure;Samples;Min_cycle;Max_cycle;Signal;HPM_P1;HPM_P2
2022/01/18 01:34:07;;;;;;;38.55;4.68;;;;;;;6.03;55.00;102898.34;4943436;28;96954;-77
2022/01/18 01:42:07;;;;;;;30.17;4.05;;;;;;;5.76;55.45;102889.06;4936153;28;97757;-78
2022/01/18 01:44:42;;;;;;;60.97;6.32;;;;;;;5.65;56.66;102901.09;4943322;28;97171;-78
2022/01/18 01:47:11;;;;;;;38.60;5.63;;;;;;;5.87;55.89;102908.53;4944005;28;98970;-78
2022/01/18 01:49:39;;;;;;;41.78;5.47;;;;;;;5.77;56.16;102906.59;4939762;28;99366;-77
2022/01/18 01:52:07;;;;;;;38.53;4.70;;;;;;;6.15;56.09;102903.78;4941065;28;96743;-79
2022/01/18 01:54:33;;;;;;;44.00;5.07;;;;;;;6.16;55.14;102905.56;4943821;28;96738;-78
2022/01/18 01:57:01;;;;;;;47.65;5.68;;;;;;;5.99;55.61;102911.38;4951461;28;98069;-78
2022/01/18 01:59:28;;;;;;;36.67;5.13;;;;;;;5.56;56.85;102916.66;4946468;28;99273;-77
2022/01/18 02:01:54;;;;;;;48.60;5.53;;;;;;;6.05;55.71;102913.22;4944108;28;97359;-77
2022/01/18 02:04:22;;;;;;;49.13;5.75;;;;;;;6.22;55.24;102905.66;4944681;28;99096;-77
2022/01/18 02:06:48;;;;;;;35.80;5.00;;;;;;;6.07;55.46;102897.50;4953909;28;99161;-77
2022/01/18 02:09:15;;;;;;;44.47;4.60;;;;;;;5.53;55.92;102890.38;4943283;28;98996;-77
2022/01/18 02:11:41;;;;;;;50.47;6.13;;;;;;;5.63;56.86;102891.44;4942108;28;97150;-78
2022/01/18 02:14:14;;;;;;;34.45;5.10;;;;;;;5.70;56.73;102888.97;4948442;28;96925;-78
2022/01/18 02:22:17;;;;;;;43.65;5.75;;;;;;;5.77;56.19;102890.84;4946992;28;96852;-79
2022/01/18 02:24:44;;;;;;;32.38;5.30;;;;;;;6.14;55.63;102894.13;4938516;28;96993;-78
2022/01/18 02:27:11;;;;;;;40.08;5.90;;;;;;;5.81;55.46;102894.41;4948971;28;99109;-78
2022/01/18 02:29:38;;;;;;;35.03;4.60;;;;;;;6.14;55.72;102889.78;4949161;28;97786;-78
2022/01/18 02:32:07;;;;;;;40.53;5.38;;;;;;;6.28;55.16;102893.50;4941864;28;96788;-78
2022/01/18 02:34:33;;;;;;;44.75;5.47;;;;;;;6.16;54.87;102903.81;4948762;28;98783;-77
2022/01/18 02:37:04;;;;;;;46.70;5.95;;;;;;;5.50;56.64;102903.44;4945098;28;97784;-77
2022/01/18 02:39:32;;;;;;;47.13;5.22;;;;;;;5.63;56.85;102907.19;4943928;28;100833;-79
2022/01/18 02:42:01;;;;;;;35.20;5.68;;;;;;;5.41;57.64;102911.09;4946459;28;98704;-76
2022/01/18 02:44:29;;;;;;;49.33;6.93;;;;;;;5.54;56.10;102907.88;4951180;28;96771;-78
2022/01/18 02:46:56;;;;;;;36.95;5.80;;;;;;;5.74;56.98;102914.38;4945695;28;98113;-78
2022/01/18 02:49:22;;;;;;;43.70;5.53;;;;;;;5.48;57.64;102905.13;4950601;28;102014;-78
2022/01/18 02:51:49;;;;;;;40.50;5.95;;;;;;;5.70;57.03;102904.72;4968407;28;96756;-77
2022/01/18 02:54:17;;;;;;;41.47;5.15;;;;;;;5.72;57.03;102902.97;4963181;28;97636;-77
2022/01/18 02:56:48;;;;;;;60.10;6.97;;;;;;;5.91;56.29;102896.34;4953289;28;98531;-77
2022/01/18 02:59:21;;;;;;;49.88;5.30;;;;;;;5.90;56.01;102906.00;4939591;28;99276;-78
2022/01/18 03:04:38;;;;;;;46.88;5.65;;;;;;;5.66;56.58;102902.88;4948866;28;96690;-78
2022/01/18 03:07:05;;;;;;;38.60;7.05;;;;;;;5.47;57.13;102919.09;4952610;28;98092;-76
2022/01/18 03:09:31;;;;;;;45.90;5.53;;;;;;;5.47;57.26;102919.09;4951417;28;99471;-76
2022/01/18 03:11:59;;;;;;;36.15;5.18;;;;;;;5.61;56.45;102925.50;4937494;28;96865;-76
2022/01/18 03:14:26;;;;;;;35.22;4.93;;;;;;;5.71;56.97;102926.56;4958187;28;96933;-78
2022/01/18 03:16:52;;;;;;;34.63;5.07;;;;;;;5.64;57.52;102930.81;4948955;28;99370;-76
2022/01/18 03:19:19;;;;;;;45.72;5.45;;;;;;;5.68;56.95;102932.63;4947614;28;99343;-76
2022/01/18 03:21:45;;;;;;;42.17;5.60;;;;;;;5.55;57.19;102922.75;4950449;28;97045;-76
2022/01/18 03:24:31;;;;;;;45.72;4.88;;;;;;;5.83;56.90;102932.94;4938229;28;96819;-76
2022/01/18 03:29:43;;;;;;;42.53;6.15;;;;;;;5.56;56.03;102942.91;4945798;28;97148;-76
2022/01/18 03:32:10;;;;;;;39.92;4.32;;;;;;;5.71;56.60;102940.53;4947402;28;97738;-77
2022/01/18 03:34:36;;;;;;;45.83;5.40;;;;;;;6.12;55.79;102940.47;4947307;28;96795;-77
2022/01/18 03:37:03;;;;;;;44.92;5.70;;;;;;;5.91;55.33;102947.09;4946538;28;99345;-77
2022/01/18 03:39:29;;;;;;;47.05;6.00;;;;;;;6.03;55.80;102951.72;4946326;28;99373;-77
2022/01/18 03:42:10;;;;;;;45.25;5.35;;;;;;;6.17;55.31;102959.84;4940218;28;98883;-78
2022/01/18 03:44:37;;;;;;;35.20;5.03;;;;;;;6.01;55.37;102958.66;4941675;28;97388;-79
2022/01/18 03:47:04;;;;;;;28.33;4.63;;;;;;;5.91;54.65;102952.34;4943517;28;99149;-77
2022/01/18 03:49:35;;;;;;;43.58;5.68;;;;;;;5.48;56.65;102952.34;4947504;28;99529;-78
2022/01/18 03:52:02;;;;;;;39.58;6.13;;;;;;;5.92;56.42;102950.59;4949342;28;97230;-75
2022/01/18 03:54:28;;;;;;;29.63;5.10;;;;;;;6.00;55.58;102951.63;4960017;28;97124;-78
2022/01/18 03:56:55;;;;;;;43.17;4.55;;;;;;;6.11;54.93;102942.19;4950523;28;99250;-78
2022/01/18 03:59:21;;;;;;;38.90;4.22;;;;;;;5.55;56.98;102952.50;4943410;28;98929;-78
2022/01/18 04:01:49;;;;;;;36.65;5.20;;;;;;;5.70;56.89;102954.53;4949608;28;96838;-78
2022/01/18 04:04:18;;;;;;;34.83;4.82;;;;;;;5.81;56.24;102955.63;4969040;28;97617;-77
2022/01/18 04:06:45;;;;;;;40.50;5.13;;;;;;;5.81;55.87;102955.63;4964083;28;100800;-78
2022/01/18 04:09:11;;;;;;;29.42;4.38;;;;;;;5.72;56.57;102965.94;4960778;28;99899;-79
2022/01/18 04:11:37;;;;;;;45.75;5.47;;;;;;;5.74;56.74;102973.84;4959902;28;97190;-78
2022/01/18 04:14:04;;;;;;;36.75;7.57;;;;;;;5.77;56.93;102976.53;4959326;28;96853;-77
2022/01/18 04:16:40;;;;;;;39.42;4.38;;;;;;;5.77;56.75;102977.41;4966188;28;99254;-77
2022/01/18 04:19:34;;;;;;;32.78;4.38;;;;;;;5.95;56.51;102969.03;4952873;28;98854;-78
2022/01/18 04:27:25;;;;;;;38.40;5.55;;;;;;;5.98;55.78;102964.72;4914829;28;97017;-77
2022/01/18 04:29:51;;;;;;;48.90;6.40;;;;;;;5.89;56.16;102972.44;4959187;28;99085;-77
2022/01/18 04:32:18;;;;;;;49.83;5.80;;;;;;;5.84;56.19;102988.94;4946792;28;96805;-77
2022/01/18 04:34:45;;;;;;;36.47;5.75;;;;;;;6.35;55.46;102982.03;4948853;28;96741;-78
2022/01/18 04:37:12;;;;;;;42.92;5.20;;;;;;;6.51;54.64;102983.16;4947927;28;98529;-78
2022/01/18 04:39:40;;;;;;;29.73;5.60;;;;;;;6.64;53.15;102987.75;4962839;28;99512;-78
2022/01/18 04:42:13;;;;;;;41.65;5.15;;;;;;;6.63;54.37;102985.13;4961222;28;96788;-76
2022/01/18 04:50:08;;;;;;;43.28;5.18;;;;;;;6.86;53.60;102985.47;4948019;28;97140;-77
2022/01/18 04:52:34;;;;;;;41.95;5.35;;;;;;;7.08;53.01;102982.31;4953793;28;96804;-76
2022/01/18 04:55:03;;;;;;;32.08;5.45;;;;;;;7.09;53.05;102976.16;4959997;28;96817;-76
2022/01/18 05:00:14;;;;;;;35.22;5.32;;;;;;;6.95;53.10;102985.63;4954053;28;97139;-77
2022/01/18 05:02:40;;;;;;;31.45;4.57;;;;;;;7.01;53.19;102986.59;4943827;28;97761;-78
2022/01/18 05:05:10;;;;;;;37.33;5.65;;;;;;;6.78;54.51;102991.50;4949356;28;96926;-77
2022/01/18 05:07:38;;;;;;;37.10;5.28;;;;;;;6.60;54.16;102992.94;4943653;28;100164;-78
2022/01/18 05:10:05;;;;;;;48.67;5.40;;;;;;;6.67;54.62;102995.69;4945873;28;99334;-78
2022/01/18 05:12:41;;;;;;;44.78;6.70;;;;;;;6.35;54.60;102996.91;4951938;28;96855;-78
2022/01/18 05:15:32;;;;;;;43.50;5.60;;;;;;;6.63;54.04;103004.38;4938805;28;96709;-78
2022/01/18 05:18:55;;;;;;;35.88;4.63;;;;;;;6.72;53.91;102991.41;4941995;28;98746;-78
2022/01/18 05:21:13;;;;;;;37.67;5.25;;;;;;;6.61;54.28;102997.34;4940510;28;98575;-78
2022/01/18 05:23:39;;;;;;;43.78;6.03;;;;;;;6.73;53.80;103000.16;4951927;28;96837;-77
2022/01/18 05:26:06;;;;;;;41.63;4.82;;;;;;;6.74;53.73;103008.06;4948379;28;97832;-77
2022/01/18 05:28:32;;;;;;;32.58;5.95;;;;;;;6.67;53.89;103011.47;4938725;28;99002;-77
2022/01/18 05:30:58;;;;;;;41.90;5.50;;;;;;;6.85;53.62;103017.88;4935252;28;99392;-77
2022/01/18 05:33:25;;;;;;;39.70;4.97;;;;;;;7.03;53.24;103002.38;4945042;28;96799;-77
2022/01/18 05:35:54;;;;;;;36.03;5.43;;;;;;;7.02;53.15;103009.38;4951617;28;96641;-78
2022/01/18 05:38:21;;;;;;;33.47;4.40;;;;;;;7.07;53.04;103012.09;4945323;28;99742;-78
2022/01/18 05:40:49;;;;;;;32.95;4.60;;;;;;;6.75;52.68;103022.09;4948714;28;99343;-77
2022/01/18 05:43:16;;;;;;;46.47;5.72;;;;;;;6.87;53.38;103024.94;4941730;28;96737;-78
2022/01/18 05:45:42;;;;;;;37.60;5.50;;;;;;;7.08;52.90;103021.75;4945285;28;97188;-78
2022/01/18 05:48:08;;;;;;;31.38;5.13;;;;;;;6.82;53.52;103023.09;4953741;28;98899;-77
2022/01/18 05:50:36;;;;;;;29.52;4.50;;;;;;;7.08;52.87;103017.38;4955264;28;97591;-77
2022/01/18 05:53:02;;;;;;;29.88;3.90;;;;;;;6.78;53.75;103015.13;4956089;28;97205;-77
2022/01/18 05:55:30;;;;;;;36.08;4.93;;;;;;;6.87;53.22;103018.78;4974648;28;96819;-77
2022/01/18 05:57:56;;;;;;;37.38;5.60;;;;;;;6.46;54.47;103018.97;4944140;28;99270;-77
2022/01/18 06:00:24;;;;;;;49.40;5.65;;;;;;;6.61;53.84;103029.75;4950257;28;99245;-79
2022/01/18 06:03:01;;;;;;;27.90;4.88;;;;;;;6.62;54.08;103036.78;4950060;28;97624;-78
2022/01/18 06:08:12;;;;;;;45.63;5.90;;;;;;;6.39;54.03;103024.97;4975532;28;96156;-77
2022/01/18 06:10:40;;;;;;;38.85;5.60;;;;;;;6.54;54.09;103027.88;4979834;28;98542;-77
2022/01/18 06:13:08;;;;;;;39.67;5.30;;;;;;;6.26;54.03;103028.22;4966918;28;97482;-79
2022/01/18 06:15:35;;;;;;;34.25;5.13;;;;;;;6.34;54.90;103026.63;4959489;28;96802;-78
2022/01/18 06:18:01;;;;;;;32.55;5.78;;;;;;;6.78;53.45;103040.53;4947369;28;98939;-78
2022/01/18 06:20:28;;;;;;;33.60;5.45;;;;;;;6.48;53.83;103045.28;4944658;28;98160;-76
2022/01/18 06:22:54;;;;;;;33.15;6.60;;;;;;;6.38;54.89;103047.72;4948916;28;97869;-78
2022/01/18 06:25:21;;;;;;;38.72;5.90;;;;;;;6.28;55.17;103047.53;4951487;28;97015;-75
2022/01/18 06:27:50;;;;;;;29.25;4.57;;;;;;;6.47;54.64;103044.38;4944267;28;99453;-76
2022/01/18 06:30:18;;;;;;;31.63;4.45;;;;;;;6.58;54.38;103047.19;4947199;28;99231;-76
2022/01/18 06:32:45;;;;;;;30.60;5.25;;;;;;;6.63;54.33;103041.16;4956976;28;96676;-76
2022/01/18 06:35:13;;;;;;;38.88;4.57;;;;;;;6.56;54.36;103041.94;4947957;28;98350;-78
2022/01/18 06:37:41;;;;;;;38.92;5.03;;;;;;;6.44;54.38;103049.56;4950659;28;99301;-77
2022/01/18 06:40:11;;;;;;;30.83;4.47;;;;;;;6.33;55.21;103038.00;4945152;28;100251;-76
2022/01/18 06:42:38;;;;;;;37.58;4.13;;;;;;;6.59;54.72;103049.84;4937968;28;96695;-77
2022/01/18 06:45:07;;;;;;;41.40;6.00;;;;;;;6.62;54.81;103049.91;4944952;28;98718;-78
2022/01/18 06:47:33;;;;;;;38.95;4.90;;;;;;;6.64;55.35;103061.31;4946668;28;98929;-77
2022/01/18 06:50:00;;;;;;;36.58;5.43;;;;;;;6.80;54.07;103060.72;4942289;28;99029;-79
2022/01/18 06:52:26;;;;;;;36.17;5.57;;;;;;;6.91;53.90;103065.25;4952057;28;97451;-75
2022/01/18 06:54:52;;;;;;;40.05;5.78;;;;;;;6.95;53.95;103070.63;4962921;28;96775;-75
2022/01/18 06:57:19;;;;;;;31.38;6.15;;;;;;;6.71;53.88;103068.44;4950046;28;97878;-78
2022/01/18 06:59:45;;;;;;;29.80;5.43;;;;;;;6.73;54.28;103064.13;4944224;28;98899;-78
2022/01/18 07:02:13;;;;;;;45.92;4.93;;;;;;;7.15;54.37;103066.53;4952064;28;98412;-76
2022/01/18 07:04:39;;;;;;;30.15;4.72;;;;;;;7.14;53.24;103077.94;4952706;28;97104;-77
2022/01/18 07:07:06;;;;;;;32.10;4.07;;;;;;;7.42;53.20;103073.94;4948528;28;99691;-76
2022/01/18 07:09:32;;;;;;;30.98;4.85;;;;;;;7.16;53.62;103083.19;4945233;28;99063;-76
2022/01/18 07:12:00;;;;;;;34.80;4.25;;;;;;;7.37;53.01;103093.16;4951233;28;99687;-76
2022/01/18 07:14:26;;;;;;;30.23;4.82;;;;;;;7.71;52.57;103091.91;4946390;28;96959;-76
2022/01/18 07:16:53;;;;;;;37.53;5.00;;;;;;;7.81;52.25;103091.19;4945118;28;99532;-76
2022/01/18 07:19:21;;;;;;;35.38;4.70;;;;;;;7.68;52.17;103089.25;4946228;28;99157;-75
2022/01/18 07:21:47;;;;;;;31.45;5.32;;;;;;;7.52;52.63;103096.03;4958653;28;97082;-76
2022/01/18 07:24:18;;;;;;;21.55;4.30;;;;;;;7.56;52.58;103095.19;4945443;28;97533;-76
2022/01/18 07:26:46;;;;;;;34.17;4.07;;;;;;;7.76;52.40;103103.38;4958126;28;99410;-78
2022/01/18 07:29:13;;;;;;;23.95;4.47;;;;;;;7.46;53.38;103103.84;4957422;22;99332;-78
2022/01/18 07:31:39;;;;;;;34.70;4.68;;;;;;;7.80;52.63;103115.72;4966874;28;96730;-77
2022/01/18 07:34:06;;;;;;;30.58;5.65;;;;;;;7.79;52.33;103125.38;4970103;28;97279;-77
2022/01/18 07:36:36;;;;;;;25.40;4.45;;;;;;;8.20;51.32;103127.66;4965761;28;97804;-78
2022/01/18 07:39:03;;;;;;;27.08;4.85;;;;;;;8.33;50.90;103125.22;4961911;28;98969;-77
2022/01/18 07:41:29;;;;;;;37.75;5.18;;;;;;;8.34;51.01;103124.31;4953248;28;96773;-78
2022/01/18 07:43:56;;;;;;;39.03;4.57;;;;;;;8.00;52.18;103127.41;4950918;28;96951;-79
2022/01/18 07:46:22;;;;;;;28.15;5.68;;;;;;;7.64;52.33;103122.50;4947154;28;99221;-76
2022/01/18 07:48:49;;;;;;;27.98;5.10;;;;;;;7.86;52.76;103136.84;4949178;28;99480;-78
2022/01/18 07:51:16;;;;;;;36.85;5.22;;;;;;;7.91;52.16;103140.44;4952429;28;97341;-78
2022/01/18 07:53:44;;;;;;;34.15;4.88;;;;;;;8.16;51.35;103136.34;4952313;28;96797;-76
2022/01/18 07:56:10;;;;;;;28.42;4.60;;;;;;;8.20;51.70;103136.44;4950186;28;99298;-75
2022/01/18 07:58:37;;;;;;;35.35;6.10;;;;;;;8.20;51.33;103135.56;4950561;28;98801;-77
2022/01/18 08:01:03;;;;;;;29.15;4.55;;;;;;;8.37;51.24;103145.44;4950881;28;96716;-77
2022/01/18 08:03:29;;;;;;;36.97;5.00;;;;;;;8.29;51.19;103147.06;4946817;28;99464;-77
2022/01/18 08:05:56;;;;;;;42.00;4.68;;;;;;;7.84;52.61;103162.25;4946353;28;101569;-76
2022/01/18 08:08:23;;;;;;;25.65;4.47;;;;;;;8.46;51.52;103170.13;4947982;28;99186;-76
2022/01/18 08:10:50;;;;;;;37.40;4.63;;;;;;;8.44;51.31;103172.75;4948686;28;96881;-76
2022/01/18 08:13:17;;;;;;;27.52;5.03;;;;;;;8.44;51.12;103171.84;4950594;28;98026;-77
2022/01/18 08:15:44;;;;;;;30.13;4.40;;;;;;;8.56;51.24;103164.09;4951858;28;99004;-80
2022/01/18 08:18:15;;;;;;;33.10;4.35;;;;;;;8.61;50.61;103165.91;4948342;28;98067;-77
2022/01/18 08:20:42;;;;;;;25.40;4.75;;;;;;;8.80;50.23;103165.22;4952108;28;96821;-77
2022/01/18 08:23:09;;;;;;;29.85;4.60;;;;;;;8.89;50.04;103172.34;4949443;28;98954;-79
2022/01/18 08:25:35;;;;;;;30.90;4.18;;;;;;;8.75;50.33;103169.56;4941578;28;98792;-77
2022/01/18 08:28:03;;;;;;;36.95;5.68;;;;;;;8.94;50.01;103175.91;4948370;28;99573;-78
2022/01/18 08:30:30;;;;;;;25.70;4.18;;;;;;;8.65;50.22;103177.38;4943474;28;97593;-78
2022/01/18 08:32:56;;;;;;;27.45;5.00;;;;;;;8.76;50.59;103173.09;4947954;28;97324;-78
2022/01/18 08:35:24;;;;;;;31.55;5.15;;;;;;;8.94;49.98;103185.56;4945415;28;99316;-76
2022/01/18 08:37:50;;;;;;;32.42;4.88;;;;;;;8.80;50.68;103188.06;4950201;28;98853;-78
2022/01/18 08:40:17;;;;;;;36.75;5.47;;;;;;;8.89;50.53;103172.34;4949579;28;97373;-78
2022/01/18 08:42:43;;;;;;;29.52;3.88;;;;;;;8.97;50.08;103170.69;4946880;28;98058;-80
2022/01/18 08:45:11;;;;;;;25.02;4.50;;;;;;;8.78;50.18;103174.00;4946199;28;99571;-77
2022/01/18 08:47:38;;;;;;;33.67;4.75;;;;;;;8.93;49.87;103192.59;4945621;28;98113;-77
2022/01/18 08:50:06;;;;;;;49.72;9.27;;;;;;;9.20;49.32;103184.06;4947089;28;96952;-77
2022/01/18 08:52:32;;;;;;;46.63;12.77;;;;;;;8.70;50.84;103187.09;4948274;28;98097;-77
2022/01/18 08:54:59;;;;;;;42.13;9.52;;;;;;;8.43;50.80;103186.78;4948355;28;99015;-76
2022/01/18 08:57:25;;;;;;;42.08;9.00;;;;;;;8.42;51.72;103181.47;4949167;28;98976;-76
2022/01/18 08:59:53;;;;;;;33.90;7.68;;;;;;;8.83;50.76;103180.19;4945010;28;96872;-77
2022/01/18 09:02:21;;;;;;;36.65;8.45;;;;;;;9.41;49.82;103188.63;4939307;28;99270;-76
2022/01/18 09:04:48;;;;;;;32.72;6.53;;;;;;;9.25;49.40;103198.19;4945036;28;98910;-77
2022/01/18 09:07:17;;;;;;;24.30;4.45;;;;;;;9.18;49.18;103186.72;4949647;28;98906;-76
2022/01/18 09:09:45;;;;;;;23.52;4.50;;;;;;;8.60;51.08;103197.53;4948965;28;96731;-77
2022/01/18 09:12:14;;;;;;;30.17;4.53;;;;;;;8.66;51.09;103205.50;4948354;28;96844;-77
2022/01/18 09:14:41;;;;;;;25.50;4.68;;;;;;;9.10;50.45;103203.31;4953988;28;98949;-78
2022/01/18 09:17:08;;;;;;;32.03;6.25;;;;;;;9.20;49.81;103216.59;4947995;28;101311;-78
2022/01/18 09:19:37;;;;;;;26.23;4.68;;;;;;;9.47;49.76;103204.53;4951011;28;96840;-74
2022/01/18 09:22:04;;;;;;;36.78;5.18;;;;;;;9.40;49.81;103210.63;4971342;28;97509;-76
2022/01/18 09:24:31;;;;;;;33.22;4.45;;;;;;;9.49;49.29;103213.34;4967072;28;97111;-77
2022/01/18 09:26:57;;;;;;;30.63;5.10;;;;;;;9.88;47.96;103208.34;4970485;28;97882;-79
2022/01/18 09:29:24;;;;;;;26.95;4.38;;;;;;;9.59;48.81;103216.06;4965886;28;96481;-78
2022/01/18 09:31:50;;;;;;;28.42;4.90;;;;;;;9.74;48.74;103217.94;4964836;28;97281;-78
2022/01/18 09:34:17;;;;;;;19.90;3.67;;;;;;;9.75;48.77;103210.91;4948917;28;99421;-78
2022/01/18 09:36:44;;;;;;;21.38;3.63;;;;;;;9.87;48.32;103214.50;4946477;28;101879;-78
2022/01/18 09:39:11;;;;;;;23.52;4.40;;;;;;;9.93;48.15;103221.56;4950066;28;97274;-77
2022/01/18 09:41:40;;;;;;;24.23;4.75;;;;;;;10.01;47.76;103222.50;4952067;28;96927;-77
2022/01/18 09:44:07;;;;;;;36.42;4.75;;;;;;;9.67;48.61;103217.88;4950654;28;99356;-78
2022/01/18 09:46:34;;;;;;;22.25;4.00;;;;;;;9.38;48.96;103215.03;4948286;28;99309;-76
2022/01/18 09:49:01;;;;;;;26.88;4.13;;;;;;;9.60;48.69;103216.94;4946249;28;97383;-77
2022/01/18 09:51:29;;;;;;;21.42;3.03;;;;;;;9.75;48.63;103214.44;4947077;28;97626;-76
2022/01/18 09:53:57;;;;;;;20.42;3.50;;;;;;;9.74;48.67;103204.72;4942727;28;99301;-78
2022/01/18 09:56:24;;;;;;;21.05;3.95;;;;;;;10.04;48.05;103211.09;4948588;28;99056;-80
2022/01/18 09:58:50;;;;;;;23.35;4.28;;;;;;;10.11;47.63;103204.97;4949891;28;96862;-82
2022/01/18 10:01:17;;;;;;;20.35;4.45;;;;;;;9.85;48.18;103218.88;4946505;28;97903;-75
2022/01/18 10:03:43;;;;;;;22.75;3.35;;;;;;;9.24;49.55;103221.94;4947374;28;98467;-77
2022/01/18 10:06:11;;;;;;;26.85;4.75;;;;;;;9.86;48.60;103222.41;4948475;28;97732;-77
2022/01/18 10:08:39;;;;;;;28.70;4.70;;;;;;;9.90;47.29;103225.09;4950526;28;97072;-81
2022/01/18 10:11:14;;;;;;;19.05;2.60;;;;;;;9.53;49.24;103230.97;4948092;28;97801;-78
2022/01/18 10:13:41;;;;;;;20.30;3.50;;;;;;;9.51;48.68;103223.06;4946949;28;99262;-78
2022/01/18 10:16:11;;;;;;;20.05;3.50;;;;;;;9.94;48.45;103233.91;4948540;28;98969;-79
2022/01/18 10:18:45;;;;;;;21.48;3.33;;;;;;;10.25;47.59;103235.88;4952033;28;97179;-77
2022/01/18 10:21:12;;;;;;;19.52;2.95;;;;;;;10.42;47.21;103230.69;4949786;28;98015;-76
2022/01/18 10:23:39;;;;;;;21.95;3.17;;;;;;;10.50;46.82;103234.22;4952589;28;101683;-77
2022/01/18 10:26:18;;;;;;;19.27;3.20;;;;;;;10.36;46.24;103215.69;4952248;28;98522;-77
2022/01/18 10:28:45;;;;;;;21.52;3.20;;;;;;;10.07;47.39;103224.31;4950427;28;97408;-78
2022/01/18 10:31:29;;;;;;;23.33;3.40;;;;;;;9.99;47.63;103222.50;4952927;28;97066;-76
2022/01/18 10:34:13;;;;;;;17.10;3.45;;;;;;;10.45;46.38;103216.59;4954598;28;98955;-77
2022/01/18 10:36:55;;;;;;;17.58;3.35;;;;;;;10.47;46.61;103217.50;4956066;28;99565;-77
2022/01/18 10:39:23;;;;;;;24.80;3.20;;;;;;;10.17;47.05;103213.84;4958475;28;97662;-77
2022/01/18 10:41:55;;;;;;;20.40;3.17;;;;;;;10.41;46.62;103221.00;4966446;28;97813;-78
2022/01/18 10:44:23;;;;;;;19.20;3.17;;;;;;;10.33;46.57;103220.06;4969965;28;97024;-81
2022/01/18 10:49:51;;;;;;;14.15;2.53;;;;;;;10.98;45.50;103214.13;5293248;22;98570;-82
2022/01/18 11:02:41;;;;;;;17.38;2.47;;;;;;;11.13;45.09;103219.44;4747079;29;97642;-80
2022/01/18 11:31:56;;;;;;;17.00;2.23;;;;;;;10.95;44.39;103208.84;4859148;28;99408;-79
2022/01/18 11:35:00;;;;;;;;;;;;;;;;;;;;;
2022/01/18 11:38:12;;;;;;;12.13;2.17;;;;;;;10.77;44.86;103210.53;4850566;28;118220;-82
2022/01/18 11:40:46;;;;;;;12.65;2.28;;;;;;;11.03;43.72;103222.94;4933351;28;97439;-79
2022/01/18 11:43:13;;;;;;;10.68;2.58;;;;;;;10.79;45.03;103224.66;4932257;28;99124;-79
2022/01/18 11:45:42;;;;;;;23.23;4.43;;;;;;;10.98;44.00;103224.69;4930379;28;98736;-77
2022/01/18 11:48:19;;;;;;;20.42;3.08;;;;;;;11.41;43.10;103234.47;4929112;28;96923;-78
2022/01/18 11:50:50;;;;;;;26.33;3.40;;;;;;;11.51;42.90;103223.00;4930669;28;97778;-78
2022/01/18 11:53:37;;;;;;;16.67;2.00;;;;;;;11.64;42.84;103228.28;4930657;28;98910;-78
2022/01/18 11:56:11;;;;;;;;;;;;;;;11.37;43.23;103230.03;4932011;28;97740;-78
2022/01/18 11:59:32;;;;;;;;;;;;;;;;;;;;;
2022/01/18 12:02:13;;;;;;;;;;;;;;;;;;;;;
2022/01/18 12:05:05;;;;;;;12.50;2.60;;;;;;;10.74;45.09;103237.00;4927975;28;128808;-80
2022/01/18 12:07:56;;;;;;;15.95;2.15;;;;;;;11.03;44.29;103233.53;4935968;28;101740;-81
2022/01/18 12:10:49;;;;;;;11.23;2.80;;;;;;;11.23;44.23;103245.03;4937983;28;96827;-79
2022/01/18 12:13:33;;;;;;;13.88;2.75;;;;;;;11.10;44.76;103236.19;4940087;28;96813;-82
2022/01/18 12:16:13;;;;;;;17.08;2.25;;;;;;;11.07;43.64;103236.19;4935136;28;99141;-81
2022/01/18 12:19:09;;;;;;;22.73;2.10;;;;;;;11.49;43.35;103235.34;4932539;28;99090;-80
2022/01/18 12:21:53;;;;;;;;;;;;;;;;;;;;;
2022/01/18 12:24:24;;;;;;;10.63;1.60;;;;;;;11.46;43.79;103215.94;4934519;28;116833;-79
2022/01/18 12:27:00;;;;;;;12.68;2.75;;;;;;;11.13;44.01;103219.44;4937041;28;99492;-76
2022/01/18 12:29:50;;;;;;;14.05;2.15;;;;;;;11.39;43.83;103214.16;4940623;28;101635;-80
2022/01/18 12:32:56;;;;;;;9.60;2.05;;;;;;;11.38;43.71;103207.97;4946065;28;98716;-80
2022/01/18 13:32:07;;;;;;;12.38;2.05;;;;;;;11.21;45.84;103195.63;4963182;28;97260;-77
2022/01/18 13:34:37;;;;;;;10.05;1.92;;;;;;;11.03;46.01;103200.00;4966681;28;98631;-79
2022/01/18 13:37:07;;;;;;;15.35;2.13;;;;;;;11.29;45.59;103193.88;4972488;28;96765;-79
2022/01/18 13:39:38;;;;;;;8.15;1.60;;;;;;;11.05;45.81;103195.59;4957973;28;97841;-79
2022/01/18 13:42:06;;;;;;;12.82;2.58;;;;;;;11.11;46.13;103200.03;4954024;28;98135;-77
2022/01/18 13:44:53;;;;;;;11.23;2.40;;;;;;;11.12;46.30;103197.38;4956311;28;99263;-80
2022/01/18 13:47:37;;;;;;;;;;;;;;;;;;;;;
2022/01/18 13:50:05;;;;;;;11.57;2.17;;;;;;;11.30;45.49;103201.78;4957675;28;115839;-78
2022/01/18 13:52:33;;;;;;;16.45;2.40;;;;;;;10.32;48.04;103216.53;4955193;28;99018;-76
2022/01/18 13:55:00;;;;;;;9.82;1.92;;;;;;;10.37;47.44;103203.38;4950432;28;98953;-76
2022/01/18 13:57:26;;;;;;;15.25;1.67;;;;;;;10.70;47.00;103211.41;4956207;28;97301;-76
2022/01/18 14:00:10;;;;;;;10.15;2.05;;;;;;;10.62;47.28;103204.34;4952999;28;97201;-78
2022/01/18 14:02:43;;;;;;;17.83;2.00;;;;;;;10.74;46.98;103204.38;4955029;28;98958;-78
2022/01/18 14:05:11;;;;;;;10.45;1.58;;;;;;;10.58;46.70;103197.25;4956197;28;100210;-77
2022/01/18 14:07:43;;;;;;;11.45;1.83;;;;;;;10.74;47.06;103199.97;4956720;28;96854;-81
2022/01/18 14:10:10;;;;;;;11.10;2.75;;;;;;;10.90;46.85;103192.94;4958459;28;98480;-79
2022/01/18 14:12:36;;;;;;;11.98;2.30;;;;;;;10.56;46.98;103193.75;4963914;28;99170;-81
2022/01/18 14:15:06;;;;;;;14.27;2.08;;;;;;;10.61;47.24;103187.59;4956672;28;100024;-78
2022/01/18 14:17:33;;;;;;;11.02;1.70;;;;;;;10.54;48.02;103193.72;4957141;28;96782;-80
2022/01/18 14:20:13;;;;;;;10.27;1.70;;;;;;;10.61;47.82;103190.22;4958609;28;97218;-80
2022/01/18 14:22:40;;;;;;;15.30;2.22;;;;;;;10.71;47.61;103193.78;4953140;28;98906;-77
2022/01/18 14:25:08;;;;;;;13.32;2.55;;;;;;;10.71;47.54;103194.66;4953860;28;98885;-77
2022/01/18 14:27:37;;;;;;;8.15;2.10;;;;;;;10.92;46.95;103196.47;4950922;28;96988;-76
2022/01/18 14:30:07;;;;;;;14.57;2.15;;;;;;;10.91;46.93;103202.63;4952805;28;97002;-80
2022/01/18 14:32:36;;;;;;;7.10;1.40;;;;;;;10.94;47.08;103196.47;4960933;28;98756;-78
2022/01/18 14:35:07;;;;;;;9.13;1.55;;;;;;;10.84;47.17;103195.56;4955927;28;97086;-78
2022/01/18 14:37:47;;;;;;;11.25;2.05;;;;;;;10.93;47.43;103200.88;4956927;28;99125;-76
2022/01/18 14:40:18;;;;;;;12.48;2.08;;;;;;;10.88;47.20;103207.06;4958571;28;97205;-76
2022/01/18 14:42:48;;;;;;;8.93;1.42;;;;;;;10.44;47.97;103197.19;4957917;28;99491;-75
2022/01/18 14:45:31;;;;;;;7.97;1.52;;;;;;;10.53;48.19;103202.53;4951167;28;96953;-75
2022/01/18 14:47:59;;;;;;;8.13;1.60;;;;;;;10.95;47.50;103203.53;4955421;28;96962;-76
2022/01/18 14:50:28;;;;;;;14.05;1.80;;;;;;;11.02;46.97;103207.97;4958826;28;96952;-76
2022/01/18 14:52:55;;;;;;;7.88;1.67;;;;;;;10.78;47.48;103206.13;4962361;28;97290;-77
2022/01/18 14:55:24;;;;;;;7.57;2.05;;;;;;;11.09;46.92;103207.09;4963610;28;98782;-79
2022/01/18 14:57:51;;;;;;;11.55;2.10;;;;;;;11.12;47.01;103199.16;4973405;28;97698;-80
2022/01/18 15:00:20;;;;;;;9.57;3.03;;;;;;;11.06;47.56;103199.13;4970566;28;96945;-77
2022/01/18 15:02:48;;;;;;;14.48;2.60;;;;;;;11.18;47.21;103193.84;4962899;28;101400;-80
2022/01/18 15:05:18;;;;;;;9.50;2.00;;;;;;;11.28;47.02;103200.06;4966649;28;98743;-80
2022/01/18 15:07:47;;;;;;;12.23;2.15;;;;;;;11.13;47.44;103198.28;4958442;28;96973;-75
2022/01/18 15:10:15;;;;;;;10.48;1.70;;;;;;;11.12;47.56;103200.03;4954254;28;96786;-79
2022/01/18 15:12:44;;;;;;;18.42;5.55;;;;;;;11.27;46.64;103206.22;4952662;28;98124;-77
2022/01/18 15:15:12;;;;;;;10.30;1.80;;;;;;;11.03;47.40;103202.66;4951275;28;97782;-77
2022/01/18 15:17:53;;;;;;;9.00;2.05;;;;;;;11.34;46.80;103202.69;4945593;28;97523;-78
2022/01/18 15:20:21;;;;;;;15.15;2.50;;;;;;;11.09;47.52;103194.72;4955917;28;97410;-77
2022/01/18 15:22:51;;;;;;;9.48;2.40;;;;;;;11.12;47.54;103193.84;4951875;28;99287;-76
2022/01/18 15:25:20;;;;;;;8.27;1.90;;;;;;;10.93;47.40;103194.72;4954770;28;98419;-76